Time;durP1;ratioP1;P1;durP2;ratioP2;P2;SDS_P1;SDS_P2;PMS_P1;PMS_P2;Temp;Humidity;BMP_temperature;BMP_pressure;BME280_temperature;BME280_humidity;BME280_pressure;Samples;Min_cycle;Max_cycle;Signal;HPM_P1;HPM_P2
2023/09/17 00:01:56;;;;;;;20.20;18.30;;;15.90;99.90;;;;;;5041183;28;20040;-82
2023/09/17 00:04:23;;;;;;;21.60;19.38;;;15.90;99.90;;;;;;5039348;28;20037;-79
2023/09/17 00:06:48;;;;;;;21.17;19.08;;;15.90;99.90;;;;;;5043801;28;20048;-81
2023/09/17 00:09:14;;;;;;;21.10;19.13;;;15.90;99.90;;;;;;5043453;28;20087;-82
2023/09/17 00:11:40;;;;;;;21.20;19.05;;;15.90;99.90;;;;;;5056871;28;20033;-82
2023/09/17 00:14:06;;;;;;;22.80;20.60;;;15.90;99.90;;;;;;5031732;28;20044;-82
2023/09/17 00:16:31;;;;;;;22.45;19.73;;;15.90;99.90;;;;;;5029466;28;20045;-82
2023/09/17 00:18:57;;;;;;;22.25;20.15;;;15.90;99.90;;;;;;5050179;28;20049;-82
2023/09/17 00:21:23;;;;;;;23.23;20.88;;;15.90;99.90;;;;;;5049599;28;20511;-82
2023/09/17 00:23:49;;;;;;;25.60;21.23;;;15.90;99.90;;;;;;5055638;28;20052;-81
2023/09/17 00:26:14;;;;;;;23.52;21.02;;;15.80;99.90;;;;;;5067865;28;20392;-81
2023/09/17 00:28:40;;;;;;;23.65;21.35;;;15.80;99.90;;;;;;5043043;28;20478;-80
2023/09/17 00:31:05;;;;;;;23.00;20.77;;;15.80;99.90;;;;;;5035550;28;20037;-80
2023/09/17 00:33:31;;;;;;;24.05;21.70;;;15.80;99.90;;;;;;5048345;28;20048;-81
2023/09/17 00:35:57;;;;;;;24.13;21.63;;;15.80;99.90;;;;;;5065509;28;20063;-81
2023/09/17 00:38:22;;;;;;;23.98;21.58;;;15.80;99.90;;;;;;5035334;28;20037;-81
2023/09/17 00:40:48;;;;;;;24.40;22.10;;;15.70;99.90;;;;;;5057355;28;20055;-81
2023/09/17 00:43:13;;;;;;;25.45;22.75;;;15.80;99.90;;;;;;5058830;28;20534;-81
2023/09/17 00:45:42;;;;;;;24.90;22.40;;;15.70;99.90;;;;;;5067407;28;20047;-81
2023/09/17 00:48:09;;;;;;;24.35;21.85;;;16.00;99.90;;;;;;5056665;28;20262;-81
2023/09/17 00:50:34;;;;;;;26.23;23.50;;;15.70;99.90;;;;;;5047405;28;20044;-81
2023/09/17 00:53:01;;;;;;;24.92;22.52;;;15.70;99.90;;;;;;5048461;28;20388;-82
2023/09/17 00:55:29;;;;;;;26.63;24.00;;;16.40;99.90;;;;;;5046783;28;20506;-82
2023/09/17 00:57:56;;;;;;;25.60;23.10;;;16.40;99.90;;;;;;5063742;28;20449;-82
2023/09/17 01:00:23;;;;;;;25.98;23.05;;;15.70;99.90;;;;;;5057678;28;20466;-82
2023/09/17 01:02:50;;;;;;;26.52;23.85;;;15.70;99.90;;;;;;5067238;28;20052;-82
2023/09/17 01:05:16;;;;;;;26.33;23.58;;;15.70;99.90;;;;;;5048606;28;20044;-82
2023/09/17 01:07:42;;;;;;;25.65;22.95;;;15.70;99.90;;;;;;5060861;28;20094;-82
2023/09/17 01:10:09;;;;;;;24.42;22.23;;;15.70;99.90;;;;;;5027056;28;20042;-82
2023/09/17 01:12:35;;;;;;;25.00;22.55;;;15.70;99.90;;;;;;5044782;28;20076;-82
2023/09/17 01:15:07;;;;;;;23.45;21.15;;;15.70;99.90;;;;;;5052221;28;20037;-82
2023/09/17 01:17:34;;;;;;;24.30;21.90;;;15.70;99.90;;;;;;5022053;28;20053;-82
2023/09/17 01:20:00;;;;;;;26.38;23.67;;;15.70;99.90;;;;;;5050505;28;20547;-82
2023/09/17 01:22:34;;;;;;;24.85;22.35;;;16.20;99.90;;;;;;5065877;28;20143;-82
2023/09/17 01:25:07;;;;;;;24.67;22.20;;;15.80;99.90;;;;;;5057419;28;20504;-82
2023/09/17 01:27:39;;;;;;;26.45;23.92;;;15.80;99.90;;;;;;5053185;28;20054;-82
2023/09/17 01:30:15;;;;;;;25.92;23.42;;;15.80;99.90;;;;;;5046693;28;20041;-82
2023/09/17 01:32:42;;;;;;;26.27;23.67;;;15.80;99.90;;;;;;5027885;28;20055;-82
2023/09/17 01:35:13;;;;;;;26.48;23.77;;;16.20;99.90;;;;;;5058772;28;20400;-82
2023/09/17 01:37:44;;;;;;;27.08;23.90;;;15.80;99.90;;;;;;5030307;28;20049;-82
2023/09/17 01:40:14;;;;;;;25.73;23.27;;;16.50;99.90;;;;;;5039056;28;20403;-82
2023/09/17 01:42:45;;;;;;;26.92;24.13;;;15.80;99.90;;;;;;5058197;28;20052;-82
2023/09/17 01:45:16;;;;;;;26.60;23.77;;;15.90;99.90;;;;;;5048085;28;20105;-81
2023/09/17 01:47:44;;;;;;;26.90;24.20;;;15.80;99.90;;;;;;5050662;28;20384;-82
2023/09/17 01:50:11;;;;;;;27.33;24.33;;;16.20;99.90;;;;;;5052842;28;20347;-82
2023/09/17 01:52:39;;;;;;;26.90;24.23;;;15.80;99.90;;;;;;5030888;28;20591;-82
2023/09/17 01:55:08;;;;;;;27.10;24.50;;;15.80;99.90;;;;;;5035666;28;20086;-82
2023/09/17 01:57:34;;;;;;;27.73;24.83;;;15.80;99.90;;;;;;5044890;28;20046;-82
2023/09/17 02:00:00;;;;;;;26.95;24.35;;;15.80;99.90;;;;;;5047751;28;20079;-82
2023/09/17 02:02:26;;;;;;;25.75;23.05;;;15.90;99.90;;;;;;5050436;28;20056;-82
2023/09/17 02:04:52;;;;;;;25.88;23.20;;;15.80;99.90;;;;;;5051642;28;20491;-82
2023/09/17 02:07:18;;;;;;;26.33;23.60;;;15.80;99.90;;;;;;5057864;28;20052;-82
2023/09/17 02:09:44;;;;;;;28.40;25.05;;;15.80;99.90;;;;;;5054749;28;20106;-82
2023/09/17 02:12:09;;;;;;;26.30;23.65;;;15.80;99.90;;;;;;5046989;28;20049;-82
2023/09/17 02:14:35;;;;;;;26.15;23.55;;;15.80;99.90;;;;;;5061327;28;20072;-82
2023/09/17 02:17:03;;;;;;;27.13;24.42;;;15.80;99.90;;;;;;5060496;28;20377;-82
2023/09/17 02:19:28;;;;;;;27.42;24.70;;;15.80;99.90;;;;;;5057412;28;20048;-82
2023/09/17 02:21:54;;;;;;;26.52;23.70;;;15.80;99.90;;;;;;5045495;28;20052;-82
2023/09/17 02:24:20;;;;;;;26.95;24.15;;;15.80;99.90;;;;;;5038872;28;20414;-82
2023/09/17 02:26:46;;;;;;;27.67;24.83;;;15.80;99.90;;;;;;5054299;28;20046;-82
2023/09/17 02:29:12;;;;;;;26.33;23.77;;;15.80;99.90;;;;;;5046100;28;20171;-82
2023/09/17 02:31:37;;;;;;;25.75;22.70;;;15.80;99.90;;;;;;5037293;28;20127;-82
2023/09/17 02:34:04;;;;;;;27.13;24.33;;;15.80;99.90;;;;;;5044468;28;20036;-82
2023/09/17 02:36:30;;;;;;;26.77;24.20;;;15.80;99.90;;;;;;5047159;28;20746;-82
2023/09/17 02:38:56;;;;;;;27.65;24.55;;;15.80;99.90;;;;;;5054394;28;20050;-82
2023/09/17 02:41:22;;;;;;;25.75;22.98;;;15.80;99.90;;;;;;5059896;28;20049;-82
2023/09/17 02:43:48;;;;;;;26.20;23.50;;;15.80;99.90;;;;;;5050195;28;20049;-82
2023/09/17 02:46:14;;;;;;;27.70;25.00;;;16.30;99.90;;;;;;5051511;28;20125;-82
2023/09/17 02:48:39;;;;;;;28.88;25.58;;;15.90;99.90;;;;;;5050479;28;20079;-82
2023/09/17 02:51:05;;;;;;;27.08;24.35;;;15.80;99.90;;;;;;5054152;28;20045;-82
2023/09/17 02:53:30;;;;;;;28.58;25.30;;;16.00;99.90;;;;;;5046998;28;20044;-82
2023/09/17 02:55:57;;;;;;;27.58;24.88;;;15.90;99.90;;;;;;5046830;28;20504;-82
2023/09/17 02:58:23;;;;;;;27.83;24.98;;;15.80;99.90;;;;;;5049541;28;20123;-82
2023/09/17 03:00:49;;;;;;;28.17;25.30;;;15.70;99.90;;;;;;5043735;28;20934;-82
2023/09/17 03:03:15;;;;;;;26.50;23.80;;;15.80;99.90;;;;;;5058661;28;20556;-82
2023/09/17 03:05:47;;;;;;;28.70;25.77;;;15.80;99.90;;;;;;5057739;28;20068;-82
2023/09/17 03:08:13;;;;;;;27.60;24.58;;;15.80;99.90;;;;;;5028070;28;20496;-82
2023/09/17 03:10:42;;;;;;;28.65;25.67;;;15.60;99.90;;;;;;5057348;28;20049;-82
2023/09/17 03:13:12;;;;;;;28.30;25.33;;;15.80;99.90;;;;;;5042535;28;20056;-82
2023/09/17 03:15:38;;;;;;;27.83;25.00;;;15.80;99.90;;;;;;5055105;28;20041;-82
2023/09/17 03:18:04;;;;;;;30.70;25.35;;;15.80;99.90;;;;;;5033343;28;20037;-82
2023/09/17 03:20:33;;;;;;;30.48;25.13;;;15.80;99.90;;;;;;5036586;28;20073;-82
2023/09/17 03:23:02;;;;;;;28.13;25.20;;;15.70;99.90;;;;;;5028696;28;20349;-81
2023/09/17 03:25:29;;;;;;;28.88;25.80;;;16.30;99.90;;;;;;5058271;28;20044;-82
2023/09/17 03:27:55;;;;;;;29.00;26.02;;;15.70;99.90;;;;;;5044089;28;20052;-82
2023/09/17 03:30:21;;;;;;;29.75;26.67;;;15.70;99.90;;;;;;5042618;28;20045;-82
2023/09/17 03:32:46;;;;;;;34.00;27.40;;;15.80;99.90;;;;;;5030949;28;20087;-82
2023/09/17 03:35:12;;;;;;;29.98;26.83;;;15.80;99.90;;;;;;5049671;28;20044;-82
2023/09/17 03:37:38;;;;;;;30.30;27.08;;;15.80;99.90;;;;;;5050611;28;20048;-82
2023/09/17 03:40:11;;;;;;;29.88;26.77;;;15.80;99.90;;;;;;5042022;28;20441;-82
2023/09/17 03:42:38;;;;;;;34.05;27.83;;;15.80;99.90;;;;;;5052256;28;20143;-82
2023/09/17 03:45:09;;;;;;;30.45;26.60;;;15.80;99.90;;;;;;5034826;28;20049;-82
2023/09/17 03:47:42;;;;;;;30.73;27.42;;;15.80;99.90;;;;;;5053617;28;21542;-82
2023/09/17 03:50:08;;;;;;;32.13;28.92;;;15.80;99.90;;;;;;5050375;28;20045;-82
2023/09/17 03:52:36;;;;;;;32.58;28.08;;;15.80;99.90;;;;;;5041825;28;20415;-82
2023/09/17 03:55:05;;;;;;;31.40;28.05;;;15.90;99.90;;;;;;5042334;28;20111;-82
2023/09/17 03:57:33;;;;;;;32.80;28.45;;;15.80;99.90;;;;;;5049467;28;20084;-82
2023/09/17 03:59:59;;;;;;;30.33;27.13;;;15.80;99.90;;;;;;5060240;28;20057;-82
2023/09/17 04:02:25;;;;;;;32.22;28.45;;;15.80;99.90;;;;;;5046320;28;20044;-83
2023/09/17 04:04:51;;;;;;;33.35;29.77;;;15.80;99.90;;;;;;5056262;28;20045;-82
2023/09/17 04:07:17;;;;;;;33.45;29.85;;;15.80;99.90;;;;;;5049081;28;20354;-82
2023/09/17 04:09:42;;;;;;;34.25;29.42;;;15.80;99.90;;;;;;5050949;28;20050;-82
2023/09/17 04:12:08;;;;;;;33.67;30.27;;;15.90;99.90;;;;;;5052490;28;20186;-82
2023/09/17 04:14:34;;;;;;;33.45;29.95;;;15.90;99.90;;;;;;5037749;28;20049;-83
2023/09/17 04:17:01;;;;;;;33.00;29.50;;;15.90;99.90;;;;;;5050110;28;20068;-82
2023/09/17 04:19:29;;;;;;;32.10;28.52;;;15.90;99.90;;;;;;5051200;28;20079;-82
2023/09/17 04:21:56;;;;;;;32.40;28.83;;;15.90;99.90;;;;;;5056653;28;20058;-82
2023/09/17 04:24:21;;;;;;;32.42;28.95;;;15.90;99.90;;;;;;5050703;28;20071;-83
2023/09/17 04:26:47;;;;;;;33.95;29.73;;;16.00;99.90;;;;;;5055388;28;20049;-82
2023/09/17 04:29:12;;;;;;;32.72;29.23;;;15.90;99.90;;;;;;5055091;28;20163;-82
2023/09/17 04:31:38;;;;;;;34.47;29.85;;;15.90;99.90;;;;;;5035808;28;20049;-83
2023/09/17 04:34:04;;;;;;;32.78;29.40;;;15.90;99.90;;;;;;5058129;28;20032;-83
2023/09/17 04:36:30;;;;;;;33.05;28.90;;;15.90;99.90;;;;;;5057227;28;20044;-82
2023/09/17 04:38:55;;;;;;;32.30;28.02;;;15.90;99.90;;;;;;5047083;28;20438;-82
2023/09/17 04:41:21;;;;;;;30.45;27.23;;;15.90;99.90;;;;;;5046147;28;20126;-82
2023/09/17 04:43:46;;;;;;;31.42;28.10;;;15.90;99.90;;;;;;5045421;28;20124;-82
2023/09/17 04:46:12;;;;;;;33.22;28.00;;;15.90;99.90;;;;;;5053677;28;20033;-83
2023/09/17 04:48:38;;;;;;;31.85;28.08;;;15.90;99.90;;;;;;5040871;28;20040;-82
2023/09/17 04:51:07;;;;;;;30.65;27.45;;;16.00;99.90;;;;;;5051287;28;20193;-83
2023/09/17 04:53:33;;;;;;;33.58;28.65;;;16.00;99.90;;;;;;5047927;28;20185;-82
2023/09/17 04:55:59;;;;;;;32.58;28.38;;;16.00;99.90;;;;;;5048545;28;20124;-83
2023/09/17 04:58:25;;;;;;;31.92;28.50;;;16.50;99.90;;;;;;5045115;28;20049;-83
2023/09/17 05:00:54;;;;;;;32.67;29.27;;;16.10;99.90;;;;;;5031713;28;20513;-82
2023/09/17 05:03:20;;;;;;;32.55;29.05;;;15.90;99.90;;;;;;5044846;28;20486;-83
2023/09/17 05:05:46;;;;;;;31.88;28.45;;;15.90;99.90;;;;;;5043682;28;20076;-83
2023/09/17 05:08:16;;;;;;;31.50;28.20;;;16.00;99.90;;;;;;5046556;28;20488;-82
2023/09/17 05:10:42;;;;;;;33.28;29.73;;;15.90;99.90;;;;;;5041492;28;20116;-83
2023/09/17 05:13:08;;;;;;;32.85;29.45;;;15.90;99.90;;;;;;5028560;28;20209;-83
2023/09/17 05:15:34;;;;;;;32.55;29.05;;;16.30;99.90;;;;;;5042758;28;20061;-83
2023/09/17 05:18:06;;;;;;;33.60;29.95;;;16.60;99.90;;;;;;5046361;28;20041;-83
2023/09/17 05:20:31;;;;;;;33.90;30.38;;;16.20;99.90;;;;;;5043828;28;20049;-82
2023/09/17 05:22:57;;;;;;;33.13;29.58;;;15.90;99.90;;;;;;5028278;28;20041;-82
2023/09/17 05:25:22;;;;;;;33.17;29.45;;;15.90;99.90;;;;;;5041219;28;20057;-82
2023/09/17 05:27:48;;;;;;;35.03;29.73;;;15.90;99.90;;;;;;5043033;28;20098;-83
2023/09/17 05:30:13;;;;;;;33.05;29.73;;;15.90;99.90;;;;;;5030181;28;20045;-83
2023/09/17 05:32:43;;;;;;;35.05;30.10;;;15.90;99.90;;;;;;5044648;28;20040;-83
2023/09/17 05:35:08;;;;;;;33.42;29.90;;;15.90;99.90;;;;;;5051383;28;20076;-84
2023/09/17 05:37:34;;;;;;;34.75;30.38;;;15.90;99.90;;;;;;5047893;28;20158;-83
2023/09/17 05:40:00;;;;;;;33.13;29.73;;;15.90;99.90;;;;;;5063975;28;20052;-83
2023/09/17 05:42:26;;;;;;;34.20;30.60;;;15.90;99.90;;;;;;5057453;28;20048;-83
2023/09/17 05:44:52;;;;;;;34.67;30.98;;;16.50;99.90;;;;;;5038267;28;20045;-83
2023/09/17 05:47:18;;;;;;;34.08;30.58;;;16.00;99.90;;;;;;5038192;28;20135;-83
2023/09/17 05:49:43;;;;;;;33.33;29.95;;;16.00;99.90;;;;;;5056579;28;20139;-85
2023/09/17 05:52:09;;;;;;;33.17;29.75;;;16.70;99.90;;;;;;5032599;28;20037;-82
2023/09/17 05:54:34;;;;;;;33.85;30.15;;;16.00;99.90;;;;;;5046891;28;20381;-85
2023/09/17 05:57:00;;;;;;;34.17;30.58;;;16.00;99.90;;;;;;5055581;28;20052;-85
2023/09/17 05:59:26;;;;;;;36.67;32.40;;;16.00;99.90;;;;;;5046938;28;20056;-85
2023/09/17 06:01:51;;;;;;;37.33;33.25;;;16.50;99.90;;;;;;5047226;28;20119;-86
2023/09/17 06:04:17;;;;;;;36.38;32.63;;;15.70;99.90;;;;;;5046080;28;20041;-86
2023/09/17 06:06:44;;;;;;;37.30;33.25;;;16.00;99.90;;;;;;5031304;28;20128;-86
2023/09/17 06:09:09;;;;;;;36.17;32.28;;;16.00;99.90;;;;;;5046436;28;20054;-86
2023/09/17 06:11:35;;;;;;;36.80;32.85;;;16.10;99.90;;;;;;5038833;28;20052;-84
2023/09/17 06:14:01;;;;;;;37.08;32.97;;;16.10;99.90;;;;;;5051249;28;20051;-87
2023/09/17 06:16:26;;;;;;;35.60;31.80;;;16.10;99.90;;;;;;5056545;28;20127;-89
2023/09/17 06:18:52;;;;;;;34.58;30.92;;;16.50;99.90;;;;;;5051436;28;20403;-86
2023/09/17 06:21:17;;;;;;;35.42;31.60;;;16.20;99.90;;;;;;5031940;28;20090;-83
2023/09/17 06:23:43;;;;;;;35.90;31.65;;;16.70;99.90;;;;;;5031411;28;20040;-86
2023/09/17 06:26:10;;;;;;;34.80;31.05;;;16.20;99.90;;;;;;5046230;28;20052;-85
2023/09/17 06:28:36;;;;;;;35.05;30.60;;;16.30;99.90;;;;;;5047522;28;20685;-88
2023/09/17 06:31:02;;;;;;;33.90;30.50;;;16.30;99.90;;;;;;5037924;28;20041;-89
2023/09/17 06:33:28;;;;;;;37.40;31.90;;;16.70;99.90;;;;;;5054073;28;20075;-90
2023/09/17 06:35:57;;;;;;;36.38;31.38;;;16.40;99.90;;;;;;5020019;28;20048;-88
2023/09/17 06:38:23;;;;;;;34.72;30.90;;;16.50;99.90;;;;;;5037341;28;20071;-88
2023/09/17 06:40:48;;;;;;;34.35;30.67;;;17.50;99.90;;;;;;5051421;28;20079;-86
2023/09/17 06:43:15;;;;;;;35.50;31.70;;;17.40;99.90;;;;;;5067534;28;20056;-90
2023/09/17 06:45:45;;;;;;;32.83;29.38;;;17.10;99.90;;;;;;5038901;28;20056;-89
2023/09/17 06:48:18;;;;;;;32.58;28.98;;;16.90;99.90;;;;;;5038430;28;20033;-89
2023/09/17 06:50:44;;;;;;;34.00;30.38;;;16.90;99.90;;;;;;5036978;28;20036;-88
2023/09/17 06:53:12;;;;;;;33.70;30.13;;;17.20;99.90;;;;;;5037247;28;20687;-89
2023/09/17 06:55:38;;;;;;;32.30;28.85;;;16.80;99.90;;;;;;5033919;28;20488;-85
2023/09/17 06:58:03;;;;;;;33.00;28.55;;;17.20;99.90;;;;;;5052266;28;20040;-89
2023/09/17 07:00:29;;;;;;;30.70;27.60;;;16.90;99.90;;;;;;5051786;28;20041;-89
2023/09/17 07:02:56;;;;;;;31.77;28.48;;;16.90;99.90;;;;;;5050833;28;20033;-87
2023/09/17 07:05:23;;;;;;;31.00;27.83;;;17.40;99.90;;;;;;5032142;28;20048;-92
2023/09/17 07:07:50;;;;;;;30.58;27.42;;;16.90;99.90;;;;;;5041027;28;20372;-90
2023/09/17 07:10:16;;;;;;;30.85;27.58;;;17.20;99.90;;;;;;5032723;28;20766;-88
2023/09/17 07:12:43;;;;;;;30.50;27.25;;;16.90;99.90;;;;;;5032839;28;20067;-87
2023/09/17 07:15:10;;;;;;;29.27;26.38;;;17.80;99.90;;;;;;5038775;28;20053;-91
2023/09/17 07:17:46;;;;;;;29.60;26.58;;;16.80;99.90;;;;;;5034602;28;20044;-90
2023/09/17 07:20:13;;;;;;;29.15;26.20;;;17.20;99.90;;;;;;5020107;28;20037;-89
2023/09/17 07:22:42;;;;;;;30.58;27.25;;;16.90;99.90;;;;;;5032082;28;20041;-93
2023/09/17 07:25:13;;;;;;;29.40;26.45;;;17.10;99.90;;;;;;5035733;28;20106;-93
2023/09/17 07:27:42;;;;;;;29.63;26.60;;;16.40;99.90;;;;;;5037035;28;20258;-93
2023/09/17 07:30:08;;;;;;;30.65;27.42;;;17.30;99.90;;;;;;5053824;28;20041;-89
2023/09/17 07:32:43;;;;;;;30.98;27.67;;;16.70;99.90;;;;;;5051009;28;20045;-93
2023/09/17 07:35:09;;;;;;;29.92;26.70;;;16.70;99.90;;;;;;5036851;28;20166;-91
2023/09/17 07:37:35;;;;;;;31.55;26.38;;;16.70;99.90;;;;;;5042460;28;20176;-89
2023/09/17 07:40:05;;;;;;;30.50;27.42;;;16.70;99.90;;;;;;5037668;28;20084;-92
2023/09/17 07:42:31;;;;;;;31.77;28.38;;;16.70;99.90;;;;;;5039756;28;20049;-90
2023/09/17 07:44:57;;;;;;;32.88;28.92;;;16.80;99.90;;;;;;5034833;28;20040;-87
2023/09/17 07:47:23;;;;;;;30.58;27.25;;;16.80;99.90;;;;;;5063716;28;20109;-87
2023/09/17 07:49:50;;;;;;;30.92;27.55;;;16.90;99.90;;;;;;5054802;28;20096;-93
2023/09/17 07:52:16;;;;;;;32.22;28.05;;;17.00;99.90;;;;;;5038442;28;20094;-90
2023/09/17 07:54:42;;;;;;;31.45;28.05;;;16.80;99.90;;;;;;5038810;28;20049;-92
2023/09/17 07:57:14;;;;;;;31.83;28.30;;;16.80;99.90;;;;;;5042641;28;20072;-89
2023/09/17 07:59:44;;;;;;;32.58;29.27;;;16.80;99.90;;;;;;5044167;28;20074;-91
2023/09/17 08:02:09;;;;;;;31.95;28.60;;;17.20;99.90;;;;;;5048563;28;20675;-90
2023/09/17 08:04:38;;;;;;;31.55;28.20;;;16.80;99.90;;;;;;5045299;28;20064;-90
2023/09/17 08:07:04;;;;;;;29.75;26.83;;;17.70;99.90;;;;;;5041652;28;20055;-90
2023/09/17 08:09:32;;;;;;;30.13;27.02;;;17.30;99.90;;;;;;5039418;28;20041;-91
2023/09/17 08:11:59;;;;;;;30.85;27.58;;;16.90;99.90;;;;;;5038834;28;20536;-91
2023/09/17 08:14:25;;;;;;;30.88;27.73;;;17.30;99.90;;;;;;5039146;28;20511;-91
2023/09/17 08:16:52;;;;;;;30.90;27.70;;;17.10;99.90;;;;;;5038133;28;20040;-87
2023/09/17 08:19:18;;;;;;;29.67;26.58;;;17.10;99.90;;;;;;5051810;28;20080;-89
2023/09/17 08:21:44;;;;;;;29.33;26.48;;;17.10;99.90;;;;;;5052079;28;20081;-88
2023/09/17 08:24:10;;;;;;;30.77;27.50;;;17.10;99.90;;;;;;5050392;28;20134;-86
2023/09/17 08:26:36;;;;;;;29.58;26.63;;;17.20;99.90;;;;;;5050985;28;20116;-87
2023/09/17 08:29:01;;;;;;;29.73;26.63;;;17.40;99.90;;;;;;5033911;28;20047;-87
2023/09/17 08:31:28;;;;;;;29.20;26.30;;;17.30;99.90;;;;;;5049787;28;20045;-86
2023/09/17 08:33:54;;;;;;;30.08;27.00;;;17.30;99.90;;;;;;5051305;28;20049;-86
2023/09/17 08:36:23;;;;;;;29.38;26.23;;;17.40;99.90;;;;;;5052653;28;20049;-86
2023/09/17 08:38:50;;;;;;;28.15;25.30;;;18.10;99.90;;;;;;5035035;28;20052;-85
2023/09/17 08:41:18;;;;;;;28.83;25.73;;;17.40;99.90;;;;;;5049616;28;20107;-86
2023/09/17 08:43:46;;;;;;;27.95;25.08;;;17.40;99.90;;;;;;5033706;28;20044;-85
2023/09/17 08:46:12;;;;;;;29.85;26.75;;;17.40;99.90;;;;;;5050356;28;20045;-86
2023/09/17 08:48:38;;;;;;;27.63;24.83;;;17.80;99.90;;;;;;5033805;28;20088;-85
2023/09/17 08:51:05;;;;;;;27.98;25.08;;;17.40;99.90;;;;;;5049926;28;20045;-85
2023/09/17 08:53:40;;;;;;;28.23;25.30;;;17.90;99.90;;;;;;5063334;28;20051;-84
2023/09/17 08:56:08;;;;;;;28.38;25.55;;;17.40;99.90;;;;;;5048159;28;20048;-86
2023/09/17 08:58:40;;;;;;;27.90;25.13;;;17.40;99.90;;;;;;5026502;28;20041;-88
2023/09/17 09:01:08;;;;;;;28.75;25.95;;;18.20;99.90;;;;;;5049543;28;20084;-87
2023/09/17 09:03:35;;;;;;;29.02;25.90;;;17.60;99.90;;;;;;5049659;28;20403;-86
2023/09/17 09:06:03;;;;;;;28.40;25.48;;;17.60;99.90;;;;;;5051210;28;20044;-87
2023/09/17 09:08:30;;;;;;;28.27;25.30;;;17.80;99.90;;;;;;5068800;28;20058;-85
2023/09/17 09:10:56;;;;;;;28.63;25.77;;;17.90;99.90;;;;;;5053156;28;20148;-86
2023/09/17 09:13:22;;;;;;;27.70;25.00;;;18.00;99.90;;;;;;5033671;28;20106;-87
2023/09/17 09:15:49;;;;;;;27.80;25.10;;;18.30;99.90;;;;;;5036822;28;20138;-92
2023/09/17 09:18:15;;;;;;;28.10;25.30;;;18.20;99.90;;;;;;5044532;28;20099;-90
2023/09/17 09:20:42;;;;;;;27.95;25.13;;;18.30;99.90;;;;;;5035137;28;20049;-94
2023/09/17 09:23:08;;;;;;;27.58;24.88;;;18.30;99.90;;;;;;5017072;28;20114;-89
2023/09/17 09:25:40;;;;;;;27.95;25.17;;;18.30;99.90;;;;;;5035415;28;20497;-92
2023/09/17 09:28:05;;;;;;;27.77;24.90;;;18.40;99.90;;;;;;5062849;28;20527;-92
2023/09/17 09:30:35;;;;;;;26.88;24.30;;;18.40;99.90;;;;;;5061219;28;20044;-90
2023/09/17 09:33:07;;;;;;;28.80;25.83;;;18.50;99.90;;;;;;5036498;28;20056;-91
2023/09/17 09:35:36;;;;;;;27.92;25.23;;;18.70;99.90;;;;;;5054151;28;20037;-90
2023/09/17 09:38:02;;;;;;;27.98;25.08;;;18.70;99.90;;;;;;5053960;28;20140;-91
2023/09/17 09:40:30;;;;;;;26.35;23.83;;;18.80;99.90;;;;;;5038155;28;20064;-92
2023/09/17 09:42:57;;;;;;;25.92;23.25;;;18.80;99.90;;;;;;5038448;28;20047;-89
2023/09/17 09:45:23;;;;;;;26.83;24.13;;;18.80;99.90;;;;;;5034357;28;20080;-86
2023/09/17 09:47:50;;;;;;;25.75;23.25;;;18.80;99.90;;;;;;5051159;28;20067;-90
2023/09/17 09:50:25;;;;;;;24.70;22.15;;;19.10;99.90;;;;;;5062924;28;20048;-91
2023/09/17 09:52:54;;;;;;;24.02;21.70;;;18.80;99.90;;;;;;5046694;28;20037;-92
2023/09/17 09:55:24;;;;;;;23.83;21.42;;;18.70;99.90;;;;;;5017353;28;20107;-91
2023/09/17 09:57:55;;;;;;;22.17;20.15;;;18.70;99.90;;;;;;5018203;28;20041;-93
2023/09/17 10:00:29;;;;;;;23.75;21.48;;;19.00;99.90;;;;;;5031632;28;20057;-93
2023/09/17 10:03:06;;;;;;;23.55;21.15;;;18.80;99.90;;;;;;5038208;28;20045;-92
2023/09/17 10:05:45;;;;;;;22.20;20.05;;;18.80;99.90;;;;;;5034582;28;20373;-89
2023/09/17 10:08:13;;;;;;;22.85;20.73;;;18.80;99.90;;;;;;5032020;28;20053;-91
2023/09/17 10:10:39;;;;;;;22.70;20.45;;;18.80;99.90;;;;;;5030369;28;20044;-92
2023/09/17 10:13:12;;;;;;;23.63;21.35;;;18.90;99.90;;;;;;5037333;28;20089;-92
2023/09/17 10:15:43;;;;;;;24.70;22.10;;;18.90;99.90;;;;;;5037648;28;20051;-90
2023/09/17 10:18:13;;;;;;;25.02;22.35;;;18.70;99.90;;;;;;5052588;28;20169;-89
2023/09/17 10:20:43;;;;;;;27.02;24.00;;;18.50;99.90;;;;;;5071762;28;20048;-92
2023/09/17 10:23:12;;;;;;;28.77;24.52;;;18.40;99.90;;;;;;5055113;28;20509;-91
2023/09/17 10:25:41;;;;;;;26.00;23.35;;;19.00;99.90;;;;;;5051285;28;20709;-88
2023/09/17 10:28:10;;;;;;;29.02;25.90;;;18.10;99.90;;;;;;5067109;28;20052;-88
2023/09/17 10:30:38;;;;;;;29.10;26.10;;;18.10;99.90;;;;;;5042986;28;20064;-88
2023/09/17 10:33:07;;;;;;;29.13;26.15;;;17.60;99.90;;;;;;5046610;28;20182;-88
2023/09/17 10:35:34;;;;;;;30.98;27.45;;;18.90;99.90;;;;;;5053084;28;20097;-89
2023/09/17 10:38:03;;;;;;;30.00;26.20;;;18.30;99.90;;;;;;5062023;28;20052;-89
2023/09/17 10:40:32;;;;;;;29.00;25.90;;;18.80;99.90;;;;;;5051368;28;20053;-90
2023/09/17 10:43:02;;;;;;;30.05;26.95;;;19.10;99.90;;;;;;5051960;28;20522;-92
2023/09/17 10:45:32;;;;;;;30.55;27.38;;;18.60;99.90;;;;;;5045907;28;20045;-89
2023/09/17 10:48:00;;;;;;;30.40;27.23;;;18.50;99.90;;;;;;5037464;28;20148;-89
2023/09/17 10:50:29;;;;;;;29.40;26.30;;;18.60;99.90;;;;;;5033533;28;20044;-91
2023/09/17 10:52:54;;;;;;;30.42;27.33;;;18.50;99.90;;;;;;5032370;28;20127;-89
2023/09/17 10:55:22;;;;;;;31.40;27.20;;;18.50;99.90;;;;;;5050440;28;20579;-90
2023/09/17 10:58:03;;;;;;;29.52;26.20;;;18.50;99.90;;;;;;5031150;28;20047;-88
2023/09/17 11:00:33;;;;;;;28.80;25.83;;;18.40;99.90;;;;;;5028021;28;20505;-88
2023/09/17 11:03:01;;;;;;;30.70;26.70;;;18.30;99.90;;;;;;5026443;28;20049;-87
2023/09/17 11:05:29;;;;;;;30.98;27.73;;;18.40;99.90;;;;;;5026158;28;20128;-87
2023/09/17 11:08:03;;;;;;;34.28;30.60;;;18.30;99.90;;;;;;5043920;28;20158;-86
2023/09/17 11:10:29;;;;;;;33.58;30.02;;;18.40;99.90;;;;;;5044603;28;20518;-88
2023/09/17 11:12:55;;;;;;;35.53;31.70;;;18.60;99.90;;;;;;5050011;28;20048;-86
2023/09/17 11:15:21;;;;;;;34.03;30.38;;;18.70;99.90;;;;;;5066207;28;20415;-86
2023/09/17 11:17:49;;;;;;;34.30;30.60;;;18.90;99.90;;;;;;5063891;28;20049;-86
2023/09/17 11:20:17;;;;;;;32.40;29.00;;;19.00;99.90;;;;;;5065502;28;20052;-86
2023/09/17 11:22:49;;;;;;;31.73;28.33;;;19.20;99.90;;;;;;5067802;28;20050;-87
2023/09/17 11:25:33;;;;;;;30.23;27.15;;;19.30;99.90;;;;;;5065840;28;20087;-92
2023/09/17 11:28:09;;;;;;;31.77;27.27;;;19.40;99.90;;;;;;5031423;28;20041;-88
2023/09/17 11:30:59;;;;;;;29.98;26.70;;;19.50;99.90;;;;;;5046086;28;20849;-86
2023/09/17 11:33:26;;;;;;;28.05;25.05;;;19.50;99.90;;;;;;5070383;28;20048;-92
2023/09/17 11:35:55;;;;;;;28.77;25.67;;;19.50;99.90;;;;;;5074318;28;20611;-88
2023/09/17 11:38:24;;;;;;;27.98;25.20;;;19.50;99.90;;;;;;5073128;28;20135;-88
2023/09/17 11:41:10;;;;;;;27.60;24.92;;;20.00;99.90;;;;;;5073757;28;20040;-91
2023/09/17 11:43:44;;;;;;;28.10;25.20;;;19.60;99.90;;;;;;5067002;28;20181;-89
2023/09/17 11:46:12;;;;;;;28.67;25.77;;;19.70;99.90;;;;;;5067599;28;20041;-87
2023/09/17 11:48:39;;;;;;;29.13;26.13;;;19.80;99.90;;;;;;5049769;28;20124;-88
2023/09/17 11:51:21;;;;;;;26.20;23.40;;;20.00;99.90;;;;;;5033282;28;20056;-87
2023/09/17 11:53:56;;;;;;;27.23;24.52;;;20.10;99.90;;;;;;5048644;28;20136;-87
2023/09/17 11:56:35;;;;;;;27.05;24.35;;;20.60;99.90;;;;;;5048736;28;20041;-89
2023/09/17 11:59:05;;;;;;;26.40;23.85;;;21.00;99.90;;;;;;5033117;28;20045;-88
2023/09/17 12:01:57;;;;;;;26.55;23.40;;;20.50;99.90;;;;;;5032548;28;20037;-88
2023/09/17 12:04:31;;;;;;;26.50;23.63;;;20.50;99.90;;;;;;5026931;28;20089;-87
2023/09/17 12:06:58;;;;;;;26.88;24.27;;;20.60;99.90;;;;;;5049314;28;20519;-89
2023/09/17 12:12:07;;;;;;;26.15;23.50;;;21.30;99.90;;;;;;5050573;28;20091;-88
2023/09/17 12:14:33;;;;;;;27.92;25.00;;;20.70;99.90;;;;;;5050283;28;20167;-88
2023/09/17 12:17:01;;;;;;;27.23;24.20;;;21.40;99.90;;;;;;5052223;28;20377;-89
2023/09/17 12:19:28;;;;;;;26.88;24.08;;;20.80;99.90;;;;;;5051904;28;20516;-87
2023/09/17 12:21:55;;;;;;;26.48;23.88;;;20.80;99.90;;;;;;5048811;28;20045;-89
2023/09/17 12:24:58;;;;;;;26.40;23.70;;;20.80;99.90;;;;;;5045126;28;20100;-88
2023/09/17 12:27:35;;;;;;;27.20;24.40;;;20.80;99.90;;;;;;5049206;28;20094;-88
2023/09/17 12:30:21;;;;;;;27.27;24.50;;;20.80;99.90;;;;;;5035077;28;20159;-89
2023/09/17 12:32:46;;;;;;;27.08;24.30;;;20.80;99.90;;;;;;5048137;28;20049;-88
2023/09/17 12:35:13;;;;;;;27.67;24.92;;;20.70;99.90;;;;;;5050404;28;20144;-89